Aérodrome :
LOGIN :

S'inscrire | Disclaimer

   EN    FR    IT 

 










Légende :    VFR   VFR Marginal   IFR   IFR Intensif   IFR Très Intensif
Visi : 
Plafond : 
>= 8 km
>= 3000ft
5 à 8 km
1000 à 3000 ft
1500m à 5 km
500 à 1000 ft
800 à 1500m
200 à 500 ft
< 800m
< 200 ft
Symboles :   Orages  Brouillard  Fortes neiges  Fortes précipitations  Vent > 20 kt
SIGMETs :   Divers  Orages  Givrage  Turbulence  Onde Orograph.  Cendres Volcan.






- Altitude de l'aérodrome : 123 ft
- Code IATA : BLQ


LIPE - Bologna Guglielmo Marconi

DERNIER METAR :
  • 110420Z 12008KT CAVOK 16/14 Q1012

METARs EXPIRÉS :
  • 110350Z 12007KT CAVOK 15/14 Q1013
  • 110320Z 10006KT CAVOK 15/14 Q1012
  • 110250Z 09004KT 360V130 9999 FEW020 15/14 Q1013
  • 110220Z 10006KT 9999 FEW020 15/14 Q1013
  • 110150Z 08003KT 340V120 CAVOK 15/14 Q1013

TAF TAF LIPE
Valide du 11 à 00h jusqu'au 12 à 00h UTC


102300Z 1100/1124 08008KT CAVOK
BECMG 1101/1103 15010KT
TEMPO 1108/1124 4000 SHRA BKN010
BECMG 1118/1120 21010KT



MET'MAP, la Météo Aéronautique d'un coup d'oeil ! - Copyright ORBIFLY Décembre 2007 - Disclaimer

ORBIFLY MET'MAP TEAM :

Programmation & Développement : Alexandra Zaïnal
Sur une idée originale de : Baudouin d'Aumeries
Assistance à la programmation : Marc-Olivier Méhu
Soutien technique & logistique : Manuel Goepfert

Contact : metmap@orbifly.com




SOURCES & CREDITS :

   NOAA